createdAt,value
2023-01-13T00:01:38.197Z,9.3
2023-01-13T00:04:38.336Z,9.3
2023-01-13T00:07:38.203Z,9.3
2023-01-13T00:10:38.253Z,9.3
2023-01-13T00:13:38.272Z,9.3
2023-01-13T00:16:38.258Z,9.3
2023-01-13T00:19:38.263Z,9.3
2023-01-13T00:22:38.246Z,9.4
2023-01-13T00:25:38.306Z,9.4
2023-01-13T00:28:38.205Z,9.4
2023-01-13T00:31:38.271Z,9.4
2023-01-13T00:34:38.224Z,9.4
2023-01-13T00:37:38.196Z,9.4
2023-01-13T00:40:38.205Z,9.4
2023-01-13T00:43:38.206Z,9.4
2023-01-13T00:46:38.281Z,9.3
2023-01-13T00:49:38.209Z,9.3
2023-01-13T00:52:39.200Z,9.3
2023-01-13T00:55:38.230Z,9.3
2023-01-13T00:58:38.223Z,9.3
2023-01-13T01:01:38.613Z,9.3
2023-01-13T01:04:38.225Z,9.3
2023-01-13T01:07:38.232Z,9.3
2023-01-13T01:10:38.268Z,9.4
2023-01-13T01:13:38.239Z,9.4
2023-01-13T01:16:38.260Z,9.4
2023-01-13T01:19:38.251Z,9.4
2023-01-13T01:22:38.254Z,9.4
2023-01-13T01:25:38.261Z,9.4
2023-01-13T01:28:38.285Z,9.3
2023-01-13T01:31:38.336Z,9.3
2023-01-13T01:34:38.280Z,9.3
2023-01-13T01:37:38.260Z,9.3
2023-01-13T01:40:38.269Z,9.3
2023-01-13T01:43:38.264Z,9.4
2023-01-13T01:46:38.398Z,9.4
2023-01-13T01:49:38.283Z,9.3
2023-01-13T01:52:38.269Z,9.4
2023-01-13T01:55:38.285Z,9.4
2023-01-13T01:58:38.275Z,9.4
2023-01-13T02:01:38.408Z,9.4
2023-01-13T02:04:38.317Z,9.4
2023-01-13T02:07:38.324Z,9.4
2023-01-13T02:10:38.328Z,9.4
2023-01-13T02:13:38.342Z,9.4
2023-01-13T02:16:38.433Z,9.3
2023-01-13T02:19:38.360Z,9.3
2023-01-13T02:22:38.392Z,9.3
2023-01-13T02:25:38.369Z,9.3
2023-01-13T02:28:38.373Z,9.2
2023-01-13T02:31:38.411Z,9.2
2023-01-13T02:34:38.435Z,9.2
2023-01-13T02:37:38.392Z,9.3
2023-01-13T02:40:38.416Z,9.3
2023-01-13T02:43:38.397Z,9.2
2023-01-13T02:46:38.418Z,9.2
2023-01-13T02:49:38.403Z,9.2
2023-01-13T02:52:38.413Z,9.2
2023-01-13T02:55:38.413Z,9.1
2023-01-13T02:58:38.450Z,9
2023-01-13T03:01:38.517Z,9
2023-01-13T03:04:38.436Z,9
2023-01-13T03:07:38.447Z,9
2023-01-13T03:10:38.451Z,9
2023-01-13T03:13:38.451Z,9.1
2023-01-13T03:16:38.618Z,9.1
2023-01-13T03:19:38.472Z,9.2
2023-01-13T03:22:38.473Z,9.2
2023-01-13T03:25:38.476Z,9.3
2023-01-13T03:28:38.504Z,9.3
2023-01-13T03:31:38.491Z,9.3
2023-01-13T03:34:38.513Z,9.4
2023-01-13T03:37:38.482Z,9.5
2023-01-13T03:40:38.486Z,9.4
2023-01-13T03:43:38.505Z,9.5
2023-01-13T03:46:38.508Z,9.5
2023-01-13T03:49:38.508Z,9.5
2023-01-13T03:52:38.531Z,9.4
2023-01-13T03:55:38.504Z,9.4
2023-01-13T03:58:38.510Z,9.3
2023-01-13T04:01:38.693Z,9.3
2023-01-13T04:04:38.525Z,9.2
2023-01-13T04:07:38.523Z,9.3
2023-01-13T04:10:38.554Z,9.2
2023-01-13T04:13:38.532Z,9.2
2023-01-13T04:16:38.548Z,9.2
2023-01-13T04:19:38.541Z,9.2
2023-01-13T04:22:38.553Z,9.2
2023-01-13T04:25:38.555Z,9.2
2023-01-13T04:28:38.681Z,9.2
2023-01-13T04:31:38.581Z,9.1
2023-01-13T04:34:38.573Z,9.1
2023-01-13T04:37:38.574Z,8.9
2023-01-13T04:40:38.576Z,8.9
2023-01-13T04:43:38.588Z,8.9
2023-01-13T04:46:38.759Z,8.9
2023-01-13T04:49:38.595Z,8.8
2023-01-13T04:52:38.603Z,8.7
2023-01-13T04:55:38.625Z,8.7
2023-01-13T04:58:38.619Z,8.8
2023-01-13T05:01:38.788Z,8.8
2023-01-13T05:04:38.688Z,8.8
2023-01-13T05:07:38.630Z,8.7
2023-01-13T05:10:38.640Z,8.5
2023-01-13T05:13:38.647Z,8.4
2023-01-13T05:16:38.660Z,8.4
2023-01-13T05:19:38.650Z,8.3
2023-01-13T05:22:38.689Z,8.3
2023-01-13T05:25:38.667Z,8.2
2023-01-13T05:28:38.679Z,8.2
2023-01-13T05:31:38.683Z,8.1
2023-01-13T05:34:38.680Z,7.9
2023-01-13T05:37:38.677Z,7.8
2023-01-13T05:40:38.703Z,7.7
2023-01-13T05:43:38.678Z,7.6
2023-01-13T05:46:38.733Z,7.5
2023-01-13T05:49:39.944Z,7.4
2023-01-13T05:52:38.696Z,7.3
2023-01-13T05:55:38.703Z,7.3
2023-01-13T05:58:38.761Z,7.2
2023-01-13T06:01:38.717Z,7
2023-01-13T06:04:38.766Z,6.8
2023-01-13T06:07:38.710Z,6.7
2023-01-13T06:10:38.718Z,6.5
2023-01-13T06:13:38.729Z,6.4
2023-01-13T06:16:38.761Z,6.3
2023-01-13T06:19:38.744Z,6.4
2023-01-13T06:22:38.755Z,6.4
2023-01-13T06:25:38.754Z,6.7
2023-01-13T06:28:38.758Z,6.9
2023-01-13T06:31:38.816Z,7.1
2023-01-13T06:34:38.792Z,7.2
2023-01-13T06:37:38.776Z,7.4
2023-01-13T06:40:38.774Z,7.4
2023-01-13T06:43:38.780Z,7.4
2023-01-13T06:46:38.871Z,7.3
2023-01-13T06:49:38.790Z,7.4
2023-01-13T06:52:38.813Z,7.5
2023-01-13T06:55:38.792Z,7.5
2023-01-13T06:58:38.794Z,7.4
2023-01-13T07:01:38.960Z,7.3
2023-01-13T07:04:38.804Z,7.3
2023-01-13T07:07:38.812Z,7.3
2023-01-13T07:10:38.840Z,7.3
2023-01-13T07:13:38.836Z,7.2
2023-01-13T07:16:38.886Z,7.3
2023-01-13T07:19:38.816Z,7.3
2023-01-13T07:22:38.830Z,7.3
2023-01-13T07:25:38.822Z,7.3
2023-01-13T07:28:38.864Z,7.3
2023-01-13T07:31:38.861Z,7.4
2023-01-13T07:34:38.835Z,7.4
2023-01-13T07:37:38.835Z,7.3
2023-01-13T07:40:38.836Z,7.2
2023-01-13T07:43:38.837Z,7.2
2023-01-13T07:46:38.890Z,7.1
2023-01-13T07:49:38.847Z,7.1
2023-01-13T07:52:38.853Z,7.1
2023-01-13T07:55:38.857Z,7
2023-01-13T07:58:38.858Z,7
2023-01-13T08:01:38.980Z,7
2023-01-13T08:04:38.886Z,7.1
2023-01-13T08:07:38.890Z,7.1
2023-01-13T08:10:38.899Z,7.1
2023-01-13T08:13:38.877Z,7.1
2023-01-13T08:16:38.935Z,7.2
2023-01-13T08:19:38.881Z,7.4
2023-01-13T08:22:38.912Z,7.7
2023-01-13T08:25:38.894Z,8.1
2023-01-13T08:28:38.895Z,8.4
2023-01-13T08:31:38.910Z,8.8
2023-01-13T08:34:39.053Z,9.1
2023-01-13T08:37:39.101Z,9.4
2023-01-13T08:40:39.018Z,9.4
2023-01-13T08:43:39.030Z,9.4
2023-01-13T08:46:38.928Z,9.2
2023-01-13T08:49:38.932Z,9.1
2023-01-13T08:52:38.935Z,9
2023-01-13T08:55:38.934Z,8.9
2023-01-13T08:58:38.984Z,8.8
2023-01-13T09:01:39.077Z,8.8
2023-01-13T09:04:39.080Z,8.8
2023-01-13T09:07:38.971Z,8.8
2023-01-13T09:10:38.952Z,8.9
2023-01-13T09:13:38.970Z,9.1
2023-01-13T09:16:38.998Z,9.2
2023-01-13T09:19:38.976Z,9.3
2023-01-13T09:22:38.974Z,9.7
2023-01-13T09:25:38.995Z,10
2023-01-13T09:28:38.990Z,10.1
2023-01-13T09:31:38.984Z,9.9
2023-01-13T09:34:39.015Z,9.8
2023-01-13T09:37:38.993Z,9.7
2023-01-13T09:40:38.994Z,9.5
2023-01-13T09:43:39.011Z,9.6
2023-01-13T09:46:39.061Z,9.7
2023-01-13T09:49:39.022Z,9.7
2023-01-13T09:52:39.182Z,9.7
2023-01-13T09:55:39.024Z,9.6
2023-01-13T09:58:39.039Z,9.6
2023-01-13T10:01:39.038Z,9.5
2023-01-13T10:04:39.116Z,9.6
2023-01-13T10:07:39.095Z,9.7
2023-01-13T10:10:39.129Z,10.1
2023-01-13T10:13:39.107Z,10.4
2023-01-13T10:16:39.127Z,10.6
2023-01-13T10:19:39.146Z,10.6
2023-01-13T10:22:39.159Z,10.4
2023-01-13T10:25:39.164Z,10.2
2023-01-13T10:28:39.225Z,10
2023-01-13T10:31:39.193Z,10
2023-01-13T10:34:39.163Z,9.9
2023-01-13T10:37:39.160Z,9.9
2023-01-13T10:40:39.166Z,9.8
2023-01-13T10:43:39.186Z,9.7
2023-01-13T10:46:39.203Z,9.7
2023-01-13T10:49:39.190Z,9.7
2023-01-13T10:52:39.175Z,9.7
2023-01-13T10:55:39.172Z,9.7
2023-01-13T10:58:39.185Z,9.7
2023-01-13T11:01:39.331Z,9.7
2023-01-13T11:04:39.254Z,9.7
2023-01-13T11:07:39.194Z,9.7
2023-01-13T11:10:39.182Z,9.7
2023-01-13T11:13:39.190Z,9.7
2023-01-13T11:16:40.803Z,9.7
2023-01-13T11:19:39.180Z,9.7
2023-01-13T11:22:39.225Z,9.7
2023-01-13T11:25:39.176Z,9.7
2023-01-13T11:28:39.194Z,9.7
2023-01-13T11:31:39.238Z,9.7
2023-01-13T11:34:39.186Z,9.8
2023-01-13T11:37:39.192Z,9.8
2023-01-13T11:40:39.220Z,9.8
2023-01-13T11:43:39.193Z,9.9
2023-01-13T11:46:39.230Z,10
2023-01-13T11:49:39.190Z,10
2023-01-13T11:52:39.191Z,9.9
2023-01-13T11:55:39.191Z,9.8
2023-01-13T11:58:50.101Z,9.5
2023-01-13T12:01:39.247Z,9.2
2023-01-13T12:04:39.202Z,9.2
2023-01-13T12:07:39.199Z,9.2
2023-01-13T12:10:39.202Z,9.3
2023-01-13T12:13:39.268Z,9.4
2023-01-13T12:16:39.267Z,9.6
2023-01-13T12:19:39.210Z,9.7
2023-01-13T12:22:39.207Z,9.7
2023-01-13T12:25:39.218Z,9.7
2023-01-13T12:28:39.261Z,9.7
2023-01-13T12:31:39.249Z,9.7
2023-01-13T12:34:39.254Z,9.7
2023-01-13T12:37:39.236Z,9.8
2023-01-13T12:40:39.229Z,9.7
2023-01-13T12:43:39.237Z,9.7
2023-01-13T12:46:39.237Z,9.8
2023-01-13T12:49:39.235Z,9.8
2023-01-13T12:52:39.268Z,9.8
2023-01-13T12:55:39.250Z,9.9
2023-01-13T12:58:39.277Z,9.9
2023-01-13T13:01:39.342Z,9.9
2023-01-13T13:04:39.250Z,9.9
2023-01-13T13:07:39.275Z,10
2023-01-13T13:10:39.310Z,10
2023-01-13T13:13:39.270Z,10.1
2023-01-13T13:16:39.327Z,10.1
2023-01-13T13:19:39.270Z,10.1
2023-01-13T13:22:39.276Z,10
2023-01-13T13:25:39.276Z,10
2023-01-13T13:28:39.328Z,9.9
2023-01-13T13:31:39.287Z,9.8
2023-01-13T13:34:39.295Z,9.7
2023-01-13T13:37:39.295Z,9.8
2023-01-13T13:40:39.304Z,9.7
2023-01-13T13:43:39.327Z,9.6
2023-01-13T13:46:39.448Z,9.6
2023-01-13T13:49:39.316Z,9.6
2023-01-13T13:52:39.331Z,9.6
2023-01-13T13:55:39.319Z,9.6
2023-01-13T13:58:39.346Z,9.7
2023-01-13T14:01:39.457Z,9.6
2023-01-13T14:04:39.383Z,9.6
2023-01-13T14:07:39.353Z,9.6
2023-01-13T14:10:39.400Z,9.6
2023-01-13T14:13:39.332Z,9.6
2023-01-13T14:16:39.324Z,9.5
2023-01-13T14:19:39.320Z,9.4
2023-01-13T14:22:39.351Z,9.1
2023-01-13T14:25:39.329Z,8.7
2023-01-13T14:28:39.367Z,8.5
2023-01-13T14:31:39.331Z,8.3
2023-01-13T14:34:39.330Z,8.1
2023-01-13T14:37:39.337Z,8
2023-01-13T14:40:39.365Z,7.9
2023-01-13T14:43:39.358Z,7.8
2023-01-13T14:46:39.401Z,7.7
2023-01-13T14:49:39.347Z,7.7
2023-01-13T14:52:39.361Z,7.6
2023-01-13T14:55:39.358Z,7.5
2023-01-13T14:58:39.412Z,7.4
2023-01-13T15:01:39.566Z,7.3
2023-01-13T15:04:39.373Z,7.3
2023-01-13T15:07:39.375Z,7.4
2023-01-13T15:10:39.379Z,7.4
2023-01-13T15:13:39.401Z,7.5
2023-01-13T15:16:39.425Z,7.5
2023-01-13T15:19:39.386Z,7.6
2023-01-13T15:22:39.397Z,7.6
2023-01-13T15:25:39.402Z,7.7
2023-01-13T15:28:39.403Z,7.7
2023-01-13T15:31:39.400Z,7.7
2023-01-13T15:34:39.420Z,7.8
2023-01-13T15:37:39.409Z,7.8
2023-01-13T15:40:39.409Z,7.8
2023-01-13T15:43:39.429Z,7.9
2023-01-13T15:46:39.626Z,8
2023-01-13T15:49:39.406Z,8
2023-01-13T15:52:39.438Z,8
2023-01-13T15:55:39.424Z,7.9
2023-01-13T15:58:39.437Z,7.9
2023-01-13T16:01:39.496Z,7.8
2023-01-13T16:04:39.444Z,7.8
2023-01-13T16:07:39.461Z,7.8
2023-01-13T16:10:39.494Z,7.7
2023-01-13T16:13:39.487Z,7.6
2023-01-13T16:16:39.578Z,7.5
2023-01-13T16:19:39.496Z,7.5
2023-01-13T16:22:39.507Z,7.5
2023-01-13T16:25:39.528Z,7.6
2023-01-13T16:28:39.565Z,7.7
2023-01-13T16:31:39.699Z,7.7
2023-01-13T16:34:39.550Z,7.8
2023-01-13T16:37:39.564Z,7.8
2023-01-13T16:40:39.576Z,7.9
2023-01-13T16:43:39.598Z,7.9
2023-01-13T16:46:39.624Z,7.9
2023-01-13T16:49:39.603Z,8
2023-01-13T16:52:39.609Z,7.9
2023-01-13T16:55:39.620Z,8
2023-01-13T16:58:39.639Z,8
2023-01-13T17:01:39.750Z,7.9
2023-01-13T17:04:39.669Z,8
2023-01-13T17:07:39.639Z,7.9
2023-01-13T17:10:39.646Z,7.8
2023-01-13T17:13:39.664Z,7.7
2023-01-13T17:16:39.700Z,7.6
2023-01-13T17:19:39.678Z,7.5
2023-01-13T17:22:39.688Z,7.5
2023-01-13T17:25:39.670Z,7.4
2023-01-13T17:28:39.688Z,7.4
2023-01-13T17:31:39.710Z,7.4
2023-01-13T17:34:39.686Z,7.4
2023-01-13T17:37:39.688Z,7.4
2023-01-13T17:40:39.722Z,7.4
2023-01-13T17:43:39.709Z,7.4
2023-01-13T17:46:39.707Z,7.4
2023-01-13T17:49:39.715Z,7.3
2023-01-13T17:52:39.709Z,7.3
2023-01-13T17:55:39.716Z,7.3
2023-01-13T17:58:39.752Z,7.4
2023-01-13T18:01:39.846Z,7.5
2023-01-13T18:04:39.714Z,7.5
2023-01-13T18:07:39.724Z,7.5
2023-01-13T18:10:39.728Z,7.6
2023-01-13T18:13:39.748Z,7.5
2023-01-13T18:16:39.815Z,7.4
2023-01-13T18:19:39.736Z,7.3
2023-01-13T18:22:39.748Z,7.3
2023-01-13T18:25:39.749Z,7.2
2023-01-13T18:28:39.765Z,7.2
2023-01-13T18:31:39.754Z,7.2
2023-01-13T18:34:39.790Z,7.2
2023-01-13T18:37:39.770Z,7.2
2023-01-13T18:40:39.771Z,7.3
2023-01-13T18:43:39.785Z,7.3
2023-01-13T18:46:39.776Z,7.4
2023-01-13T18:49:39.775Z,7.3
2023-01-13T18:52:39.811Z,7.3
2023-01-13T18:55:39.792Z,7.4
2023-01-13T18:58:39.806Z,7.5
2023-01-13T19:01:39.893Z,7.5
2023-01-13T19:04:39.814Z,7.5
2023-01-13T19:07:39.824Z,7.6
2023-01-13T19:10:39.836Z,7.5
2023-01-13T19:13:39.830Z,7.4
2023-01-13T19:16:39.826Z,7.4
2023-01-13T19:19:39.834Z,7.4
2023-01-13T19:22:39.837Z,7.4
2023-01-13T19:25:39.832Z,7.4
2023-01-13T19:28:39.893Z,7.3
2023-01-13T19:31:39.855Z,7.3
2023-01-13T19:34:39.864Z,7.3
2023-01-13T19:37:39.859Z,7.3
2023-01-13T19:40:39.861Z,7.3
2023-01-13T19:43:39.876Z,7.4
2023-01-13T19:46:39.899Z,7.4
2023-01-13T19:49:39.880Z,7.4
2023-01-13T19:52:39.883Z,7.5
2023-01-13T19:55:39.886Z,7.5
2023-01-13T19:58:39.895Z,7.5
2023-01-13T20:01:40.047Z,7.5
2023-01-13T20:04:39.919Z,7.6
2023-01-13T20:07:39.958Z,7.7
2023-01-13T20:10:39.904Z,7.7
2023-01-13T20:13:39.915Z,7.7
2023-01-13T20:16:39.916Z,7.8
2023-01-13T20:19:39.924Z,7.8
2023-01-13T20:22:39.941Z,7.7
2023-01-13T20:25:39.968Z,7.6
2023-01-13T20:28:39.944Z,7.6
2023-01-13T20:31:39.947Z,7.6
2023-01-13T20:34:39.936Z,7.5
2023-01-13T20:37:39.939Z,7.5
2023-01-13T20:40:39.973Z,7.5
2023-01-13T20:43:39.963Z,7.6
2023-01-13T20:46:40.118Z,7.6
2023-01-13T20:49:39.957Z,7.6
2023-01-13T20:52:39.963Z,7.6
2023-01-13T20:55:39.969Z,7.6
2023-01-13T20:58:40.001Z,7.6
2023-01-13T21:01:40.032Z,7.5
2023-01-13T21:04:39.970Z,7.4
2023-01-13T21:07:39.982Z,7.3
2023-01-13T21:10:39.986Z,7.2
2023-01-13T21:13:40.004Z,7.2
2023-01-13T21:16:40.042Z,7.3
2023-01-13T21:19:40.001Z,7.3
2023-01-13T21:22:40.003Z,7.2
2023-01-13T21:25:40.048Z,7.2
2023-01-13T21:28:40.028Z,7.2
2023-01-13T21:31:40.083Z,7.1
2023-01-13T21:34:40.056Z,7
2023-01-13T21:37:40.037Z,6.9
2023-01-13T21:40:40.032Z,6.8
2023-01-13T21:43:40.059Z,6.7
2023-01-13T21:46:40.048Z,6.5
2023-01-13T21:49:40.106Z,6.4
2023-01-13T21:52:40.081Z,6.1
2023-01-13T21:55:40.075Z,5.9
2023-01-13T21:58:40.113Z,5.8
2023-01-13T22:02:00.175Z,5.7
2023-01-13T22:04:40.069Z,5.7
2023-01-13T22:07:40.078Z,5.6
2023-01-13T22:10:40.209Z,5.5
2023-01-13T22:13:40.096Z,5.5
2023-01-13T22:16:40.131Z,5.6
2023-01-13T22:19:40.094Z,5.7
2023-01-13T22:22:40.096Z,5.8
2023-01-13T22:25:40.095Z,5.9
2023-01-13T22:28:40.156Z,5.9
2023-01-13T22:31:40.145Z,6
2023-01-13T22:34:40.120Z,6.1
2023-01-13T22:37:40.126Z,6.1
2023-01-13T22:40:40.130Z,6.2
2023-01-13T22:43:40.135Z,6.3
2023-01-13T22:46:40.157Z,6.4
2023-01-13T22:49:40.135Z,6.4
2023-01-13T22:52:40.146Z,6.5
2023-01-13T22:55:40.141Z,6.5
2023-01-13T22:58:40.150Z,6.5
2023-01-13T23:01:40.150Z,6.6
2023-01-13T23:04:40.213Z,6.6
2023-01-13T23:07:40.149Z,6.6
2023-01-13T23:10:40.160Z,6.7
2023-01-13T23:13:40.172Z,6.7
2023-01-13T23:16:40.196Z,6.8
2023-01-13T23:19:40.167Z,6.8
2023-01-13T23:22:40.201Z,6.8
2023-01-13T23:25:40.176Z,6.9
2023-01-13T23:28:40.190Z,6.9
2023-01-13T23:31:40.184Z,6.9
2023-01-13T23:34:40.190Z,6.9
2023-01-13T23:37:40.204Z,6.8
2023-01-13T23:40:40.239Z,6.9
2023-01-13T23:43:40.219Z,6.9
2023-01-13T23:46:40.232Z,6.9
2023-01-13T23:49:40.212Z,6.9
2023-01-13T23:52:40.218Z,6.9
2023-01-13T23:55:40.222Z,6.8
2023-01-13T23:58:40.271Z,6.8
